sensor_id;sensor_type;location;lat;lon;timestamp;pressure;altitude;pressure_sealevel;temperature;humidity
26915;BME280;14480;52.608;13.416;2023-04-28T07:15:10;143748.44;;;-0.97;54.20
26915;BME280;14480;52.608;13.416;2023-04-28T07:20:14;143668.91;;;-1.30;52.50
26915;BME280;14480;52.608;13.416;2023-04-28T07:25:17;143462.69;;;-2.14;54.10
26915;BME280;14480;52.608;13.416;2023-04-28T07:30:25;143542.19;;;-1.82;54.14
26915;BME280;14480;52.608;13.416;2023-04-28T07:35:29;143447.75;;;-2.20;54.23
26915;BME280;14480;52.608;13.416;2023-04-28T07:40:32;143278.94;;;-2.89;54.93
26915;BME280;14480;52.608;13.416;2023-04-28T07:45:38;143221.84;;;-3.13;55.70
26915;BME280;14480;52.608;13.416;2023-04-28T07:50:42;143194.59;;;-3.24;57.45
26915;BME280;14480;52.608;13.416;2023-04-28T07:55:45;143321.16;;;-2.72;57.29
26915;BME280;14480;52.608;13.416;2023-04-28T08:00:50;143278.94;;;-2.89;57.00
26915;BME280;14480;52.608;13.416;2023-04-28T08:05:57;143224.38;;;-3.12;58.82
26915;BME280;14480;52.608;13.416;2023-04-28T08:11:23;143189.59;;;-3.26;58.57
26915;BME280;14480;52.608;13.416;2023-04-28T08:16:31;143107.72;;;-3.60;58.70
26915;BME280;14480;52.608;13.416;2023-04-28T08:21:35;143075.47;;;-3.73;59.13
26915;BME280;14480;52.608;13.416;2023-04-28T08:26:38;143043.25;;;-3.86;60.72
26915;BME280;14480;52.608;13.416;2023-04-28T08:31:43;143151.16;;;-3.42;60.11
26915;BME280;14480;52.608;13.416;2023-04-28T08:36:47;143187.13;;;-3.27;60.02
26915;BME280;14480;52.608;13.416;2023-04-28T08:41:50;143135.00;;;-3.48;60.21
26915;BME280;14480;52.608;13.416;2023-04-28T08:46:55;143231.81;;;-3.09;59.96
26915;BME280;14480;52.608;13.416;2023-04-28T08:52:01;143234.28;;;-3.08;59.98
26915;BME280;14480;52.608;13.416;2023-04-28T08:57:07;143210.69;;;-3.17;58.85
26915;BME280;14480;52.608;13.416;2023-04-28T09:02:11;143292.59;;;-2.84;59.55
26915;BME280;14480;52.608;13.416;2023-04-28T09:07:15;143249.16;;;-3.02;59.88
26915;BME280;14480;52.608;13.416;2023-04-28T09:12:19;143270.25;;;-2.93;59.34
26915;BME280;14480;52.608;13.416;2023-04-28T09:17:26;143215.66;;;-3.15;60.38
26915;BME280;14480;52.608;13.416;2023-04-28T09:22:32;143267.78;;;-2.94;60.51
26915;BME280;14480;52.608;13.416;2023-04-28T09:27:36;143218.13;;;-3.14;61.03
26915;BME280;14480;52.608;13.416;2023-04-28T09:32:41;143220.59;;;-3.13;61.76
26915;BME280;14480;52.608;13.416;2023-04-28T09:37:44;143286.41;;;-2.86;61.18
26915;BME280;14480;52.608;13.416;2023-04-28T09:42:48;143348.47;;;-2.61;60.41
26915;BME280;14480;52.608;13.416;2023-04-28T09:47:56;143437.84;;;-2.24;60.14
26915;BME280;14480;52.608;13.416;2023-04-28T09:53:11;143458.97;;;-2.16;59.04
26915;BME280;14480;52.608;13.416;2023-04-28T09:58:15;143518.56;;;-1.91;59.26
26915;BME280;14480;52.608;13.416;2023-04-28T10:03:23;143570.75;;;-1.70;58.89
26915;BME280;14480;52.608;13.416;2023-04-28T10:08:30;143478.84;;;-2.08;58.69
26915;BME280;14480;52.608;13.416;2023-04-28T10:13:34;143452.75;;;-2.18;59.27
26915;BME280;14480;52.608;13.416;2023-04-28T10:18:39;143467.66;;;-2.12;59.63
26915;BME280;14480;52.608;13.416;2023-04-28T10:29:06;143675.16;;;-1.27;58.44
26915;BME280;14480;52.608;13.416;2023-04-28T10:34:21;143644.03;;;-1.40;57.66
26915;BME280;14480;52.608;13.416;2023-04-28T10:39:26;143711.19;;;-1.12;57.11
26915;BME280;14480;52.608;13.416;2023-04-28T10:44:42;143617.94;;;-1.51;58.71
26915;BME280;14480;52.608;13.416;2023-04-28T11:00:35;143859.13;;;-0.52;56.41
26915;BME280;14480;52.608;13.416;2023-04-28T11:05:38;143856.63;;;-0.53;55.80
26915;BME280;14480;52.608;13.416;2023-04-28T11:16:05;143836.72;;;-0.61;57.32
26915;BME280;14480;52.608;13.416;2023-04-28T11:21:08;144056.91;;;0.29;55.89
26915;BME280;14480;52.608;13.416;2023-04-28T11:26:12;143949.91;;;-0.15;56.54
26915;BME280;14480;52.608;13.416;2023-04-28T11:31:21;143961.13;;;-0.10;56.00
26915;BME280;14480;52.608;13.416;2023-04-28T11:36:26;144051.94;;;0.27;55.55
26915;BME280;14480;52.608;13.416;2023-04-28T11:41:30;144019.59;;;0.14;55.27
26915;BME280;14480;52.608;13.416;2023-04-28T11:46:42;143920.03;;;-0.27;56.84
26915;BME280;14480;52.608;13.416;2023-04-28T11:51:46;143968.56;;;-0.07;56.85
26915;BME280;14480;52.608;13.416;2023-04-28T11:56:51;144090.50;;;0.43;56.88
26915;BME280;14480;52.608;13.416;2023-04-28T12:01:57;144140.31;;;0.63;55.17
26915;BME280;14480;52.608;13.416;2023-04-28T12:07:01;144074.34;;;0.36;55.84
26915;BME280;14480;52.608;13.416;2023-04-28T12:12:06;144095.47;;;0.45;56.80
26915;BME280;14480;52.608;13.416;2023-04-28T12:17:22;144089.25;;;0.42;56.54
26915;BME280;14480;52.608;13.416;2023-04-28T12:22:26;144094.22;;;0.44;56.38
26915;BME280;14480;52.608;13.416;2023-04-28T12:27:29;144096.72;;;0.45;55.94
26915;BME280;14480;52.608;13.416;2023-04-28T12:32:37;144196.31;;;0.86;54.83
26915;BME280;14480;52.608;13.416;2023-04-28T12:37:41;144276.03;;;1.19;55.36
26915;BME280;14480;52.608;13.416;2023-04-28T12:42:49;144190.13;;;0.83;55.28
26915;BME280;14480;52.608;13.416;2023-04-28T12:47:54;144216.25;;;0.94;56.11
26915;BME280;14480;52.608;13.416;2023-04-28T12:53:13;144155.22;;;0.69;56.13
26915;BME280;14480;52.608;13.416;2023-04-28T12:58:21;144175.16;;;0.77;56.26
26915;BME280;14480;52.608;13.416;2023-04-28T13:03:35;144233.66;;;1.01;55.45
26915;BME280;14480;52.608;13.416;2023-04-28T13:08:43;144258.56;;;1.11;56.11
26915;BME280;14480;52.608;13.416;2023-04-28T13:13:46;144351.97;;;1.50;54.88
26915;BME280;14480;52.608;13.416;2023-04-28T13:18:54;144441.72;;;1.86;54.40
26915;BME280;14480;52.608;13.416;2023-04-28T13:23:58;144481.56;;;2.02;54.47
26915;BME280;14480;52.608;13.416;2023-04-28T13:29:02;144349.50;;;1.49;55.54
26915;BME280;14480;52.608;13.416;2023-04-28T13:34:07;144253.59;;;1.09;57.02
26915;BME280;14480;52.608;13.416;2023-04-28T13:39:16;144315.88;;;1.35;57.04
26915;BME280;14480;52.608;13.416;2023-04-28T13:44:21;144370.69;;;1.57;56.67
26915;BME280;14480;52.608;13.416;2023-04-28T13:49:26;144287.22;;;1.23;57.27
26915;BME280;14480;52.608;13.416;2023-04-28T13:54:29;144243.66;;;1.05;57.96
26915;BME280;14480;52.608;13.416;2023-04-28T13:59:33;144203.78;;;0.89;59.42
26915;BME280;14480;52.608;13.416;2023-04-28T14:04:38;144304.69;;;1.30;57.98
26915;BME280;14480;52.608;13.416;2023-04-28T14:09:42;144277.28;;;1.19;58.14
26915;BME280;14480;52.608;13.416;2023-04-28T14:14:45;144233.66;;;1.01;58.18
26915;BME280;14480;52.608;13.416;2023-04-28T14:19:51;144163.97;;;0.73;60.47
26915;BME280;14480;52.608;13.416;2023-04-28T14:24:54;144068.09;;;0.34;61.88
26915;BME280;14480;52.608;13.416;2023-04-28T14:30:00;144020.84;;;0.14;63.96
26915;BME280;14480;52.608;13.416;2023-04-28T14:35:09;144039.47;;;0.22;65.28
26915;BME280;14480;52.608;13.416;2023-04-28T14:40:12;144012.09;;;0.11;65.73
26915;BME280;14480;52.608;13.416;2023-04-28T14:45:16;143973.53;;;-0.05;66.42
26915;BME280;14480;52.608;13.416;2023-04-28T14:50:21;143968.56;;;-0.07;66.18
26915;BME280;14480;52.608;13.416;2023-04-28T14:55:24;143972.31;;;-0.06;65.97
26915;BME280;14480;52.608;13.416;2023-04-28T15:00:27;143977.28;;;-0.04;66.16
26915;BME280;14480;52.608;13.416;2023-04-28T15:05:33;143969.81;;;-0.07;66.34
26915;BME280;14480;52.608;13.416;2023-04-28T15:10:36;143990.97;;;0.02;66.57
26915;BME280;14480;52.608;13.416;2023-04-28T15:15:40;144005.88;;;0.08;66.62
26915;BME280;14480;52.608;13.416;2023-04-28T15:20:45;144002.16;;;0.07;67.72
26915;BME280;14480;52.608;13.416;2023-04-28T15:25:51;144014.63;;;0.12;67.08
26915;BME280;14480;52.608;13.416;2023-04-28T15:30:55;143973.53;;;-0.05;66.84
26915;BME280;14480;52.608;13.416;2023-04-28T15:36:00;144004.66;;;0.08;66.36
26915;BME280;14480;52.608;13.416;2023-04-28T15:41:03;144007.13;;;0.09;66.63
26915;BME280;14480;52.608;13.416;2023-04-28T15:46:07;143994.72;;;0.04;66.58
26915;BME280;14480;52.608;13.416;2023-04-28T15:51:15;143993.47;;;0.03;66.22
26915;BME280;14480;52.608;13.416;2023-04-28T15:56:33;143986.00;;;0.00;66.76
26915;BME280;14480;52.608;13.416;2023-04-28T16:01:37;143958.63;;;-0.11;67.11
26915;BME280;14480;52.608;13.416;2023-04-28T16:06:41;143942.44;;;-0.18;66.92
26915;BME280;14480;52.608;13.416;2023-04-28T16:11:45;143946.19;;;-0.16;67.39
26915;BME280;14480;52.608;13.416;2023-04-28T16:16:48;143930.03;;;-0.23;68.03
26915;BME280;14480;52.608;13.416;2023-04-28T16:21:54;143908.88;;;-0.32;69.23
26915;BME280;14480;52.608;13.416;2023-04-28T16:26:58;143881.50;;;-0.43;69.97
26915;BME280;14480;52.608;13.416;2023-04-28T16:32:04;143872.81;;;-0.46;70.38
26915;BME280;14480;52.608;13.416;2023-04-28T16:37:09;143859.13;;;-0.52;70.81
26915;BME280;14480;52.608;13.416;2023-04-28T16:42:12;143829.28;;;-0.64;72.10
26915;BME280;14480;52.608;13.416;2023-04-28T16:47:17;143794.47;;;-0.78;73.00
26915;BME280;14480;52.608;13.416;2023-04-28T16:52:22;143779.53;;;-0.84;76.54
26915;BME280;14480;52.608;13.416;2023-04-28T16:57:27;143707.44;;;-1.14;79.75
26915;BME280;14480;52.608;13.416;2023-04-28T17:02:31;143698.72;;;-1.18;80.80
26915;BME280;14480;52.608;13.416;2023-04-28T17:07:37;143673.84;;;-1.28;82.30
26915;BME280;14480;52.608;13.416;2023-04-28T17:12:40;143650.28;;;-1.37;82.78
26915;BME280;14480;52.608;13.416;2023-04-28T17:17:47;143634.09;;;-1.44;84.15
26915;BME280;14480;52.608;13.416;2023-04-28T17:22:52;143614.22;;;-1.52;84.72
26915;BME280;14480;52.608;13.416;2023-04-28T17:27:55;143559.53;;;-1.74;86.25
26915;BME280;14480;52.608;13.416;2023-04-28T17:33:00;143552.09;;;-1.78;86.59
26915;BME280;14480;52.608;13.416;2023-04-28T17:38:05;143549.63;;;-1.79;86.74
26915;BME280;14480;52.608;13.416;2023-04-28T17:43:08;143543.41;;;-1.81;88.32
26915;BME280;14480;52.608;13.416;2023-04-28T17:48:13;143523.53;;;-1.89;89.40
26915;BME280;14480;52.608;13.416;2023-04-28T17:53:18;143462.69;;;-2.14;92.75
26915;BME280;14480;52.608;13.416;2023-04-28T17:58:21;143458.97;;;-2.16;97.44
26915;BME280;14480;52.608;13.416;2023-04-28T18:03:24;143429.16;;;-2.28;100.00
26915;BME280;14480;52.608;13.416;2023-04-28T18:08:29;143406.81;;;-2.37;100.00
26915;BME280;14480;52.608;13.416;2023-04-28T18:13:33;143375.78;;;-2.50;100.00
26915;BME280;14480;52.608;13.416;2023-04-28T18:18:38;143293.84;;;-2.83;100.00
26915;BME280;14480;52.608;13.416;2023-04-28T18:23:43;143276.44;;;-2.90;100.00
26915;BME280;14480;52.608;13.416;2023-04-28T18:28:47;143238.00;;;-3.06;100.00
26915;BME280;14480;52.608;13.416;2023-04-28T18:33:50;143213.16;;;-3.16;100.00
26915;BME280;14480;52.608;13.416;2023-04-28T18:38:55;143199.53;;;-3.22;100.00
26915;BME280;14480;52.608;13.416;2023-04-28T18:43:59;143189.59;;;-3.26;100.00
26915;BME280;14480;52.608;13.416;2023-04-28T18:49:03;143195.84;;;-3.24;100.00
26915;BME280;14480;52.608;13.416;2023-04-28T18:54:07;143189.59;;;-3.26;100.00
26915;BME280;14480;52.608;13.416;2023-04-28T18:59:11;143154.88;;;-3.40;100.00
26915;BME280;14480;52.608;13.416;2023-04-28T19:04:14;143140.00;;;-3.46;100.00
26915;BME280;14480;52.608;13.416;2023-04-28T19:09:20;143123.84;;;-3.53;100.00
26915;BME280;14480;52.608;13.416;2023-04-28T19:14:26;143101.53;;;-3.62;100.00
26915;BME280;14480;52.608;13.416;2023-04-28T19:19:29;143075.47;;;-3.73;100.00
26915;BME280;14480;52.608;13.416;2023-04-28T19:24:34;143075.47;;;-3.73;100.00
26915;BME280;14480;52.608;13.416;2023-04-28T19:29:37;143075.47;;;-3.73;100.00
26915;BME280;14480;52.608;13.416;2023-04-28T19:34:45;143075.47;;;-3.73;100.00
26915;BME280;14480;52.608;13.416;2023-04-28T19:45:19;143071.75;;;-3.74;100.00
26915;BME280;14480;52.608;13.416;2023-04-28T19:50:23;143056.91;;;-3.80;100.00
26915;BME280;14480;52.608;13.416;2023-04-28T19:55:29;143060.63;;;-3.79;100.00
26915;BME280;14480;52.608;13.416;2023-04-28T20:00:34;143065.56;;;-3.77;100.00
26915;BME280;14480;52.608;13.416;2023-04-28T20:05:40;143068.06;;;-3.76;100.00
26915;BME280;14480;52.608;13.416;2023-04-28T20:10:44;143069.28;;;-3.75;100.00
26915;BME280;14480;52.608;13.416;2023-04-28T20:15:49;143040.75;;;-3.87;100.00
26915;BME280;14480;52.608;13.416;2023-04-28T20:20:52;143048.19;;;-3.84;100.00
26915;BME280;14480;52.608;13.416;2023-04-28T20:25:56;143046.97;;;-3.85;100.00
26915;BME280;14480;52.608;13.416;2023-04-28T20:31:01;143056.91;;;-3.80;100.00
26915;BME280;14480;52.608;13.416;2023-04-28T20:36:05;143054.44;;;-3.82;100.00
26915;BME280;14480;52.608;13.416;2023-04-28T20:41:08;143059.38;;;-3.79;100.00
26915;BME280;14480;52.608;13.416;2023-04-28T20:46:13;143061.84;;;-3.78;100.00
26915;BME280;14480;52.608;13.416;2023-04-28T20:51:17;143105.25;;;-3.61;100.00
26915;BME280;14480;52.608;13.416;2023-04-28T20:56:20;143091.63;;;-3.66;100.00
26915;BME280;14480;52.608;13.416;2023-04-28T21:01:25;143099.06;;;-3.63;100.00
26915;BME280;14480;52.608;13.416;2023-04-28T21:06:29;143089.16;;;-3.67;100.00
26915;BME280;14480;52.608;13.416;2023-04-28T21:11:32;143069.28;;;-3.75;100.00
26915;BME280;14480;52.608;13.416;2023-04-28T21:16:37;143065.56;;;-3.77;100.00
26915;BME280;14480;52.608;13.416;2023-04-28T21:21:40;143065.56;;;-3.77;100.00
26915;BME280;14480;52.608;13.416;2023-04-28T21:26:46;143048.19;;;-3.84;100.00
26915;BME280;14480;52.608;13.416;2023-04-28T21:31:51;143044.47;;;-3.86;100.00
26915;BME280;14480;52.608;13.416;2023-04-28T21:36:54;143040.75;;;-3.87;100.00
26915;BME280;14480;52.608;13.416;2023-04-28T21:41:58;143048.19;;;-3.84;100.00
26915;BME280;14480;52.608;13.416;2023-04-28T21:47:04;143045.72;;;-3.85;100.00
26915;BME280;14480;52.608;13.416;2023-04-28T21:52:07;143050.66;;;-3.83;100.00
26915;BME280;14480;52.608;13.416;2023-04-28T21:57:11;143028.38;;;-3.92;100.00
26915;BME280;14480;52.608;13.416;2023-04-28T22:02:16;143024.63;;;-3.94;100.00
26915;BME280;14480;52.608;13.416;2023-04-28T22:07:19;143027.16;;;-3.93;100.00
26915;BME280;14480;52.608;13.416;2023-04-28T22:12:23;143015.97;;;-3.97;100.00
26915;BME280;14480;52.608;13.416;2023-04-28T22:17:28;142976.31;;;-4.14;100.00
26915;BME280;14480;52.608;13.416;2023-04-28T22:22:34;142982.50;;;-4.11;100.00
26915;BME280;14480;52.608;13.416;2023-04-28T22:27:37;142986.22;;;-4.09;100.00
26915;BME280;14480;52.608;13.416;2023-04-28T22:32:45;143007.28;;;-4.01;100.00
26915;BME280;14480;52.608;13.416;2023-04-28T22:37:48;143006.06;;;-4.01;100.00
26915;BME280;14480;52.608;13.416;2023-04-28T22:42:53;142978.78;;;-4.13;100.00
26915;BME280;14480;52.608;13.416;2023-04-28T22:47:58;142983.72;;;-4.11;100.00
26915;BME280;14480;52.608;13.416;2023-04-28T22:53:03;142965.13;;;-4.18;100.00
26915;BME280;14480;52.608;13.416;2023-04-28T22:58:06;142962.66;;;-4.19;100.00
26915;BME280;14480;52.608;13.416;2023-04-28T23:03:18;142958.94;;;-4.21;100.00
26915;BME280;14480;52.608;13.416;2023-04-28T23:08:25;142983.72;;;-4.11;100.00
26915;BME280;14480;52.608;13.416;2023-04-28T23:13:28;142961.41;;;-4.20;100.00
26915;BME280;14480;52.608;13.416;2023-04-28T23:18:33;142975.06;;;-4.14;100.00
26915;BME280;14480;52.608;13.416;2023-04-28T23:23:36;142961.41;;;-4.20;100.00
26915;BME280;14480;52.608;13.416;2023-04-28T23:28:40;142961.41;;;-4.20;100.00
26915;BME280;14480;52.608;13.416;2023-04-28T23:33:47;142966.34;;;-4.18;100.00
26915;BME280;14480;52.608;13.416;2023-04-28T23:38:51;142986.22;;;-4.09;100.00
26915;BME280;14480;52.608;13.416;2023-04-28T23:43:54;142976.31;;;-4.14;100.00
26915;BME280;14480;52.608;13.416;2023-04-28T23:49:00;142975.06;;;-4.14;100.00
26915;BME280;14480;52.608;13.416;2023-04-28T23:54:04;142972.59;;;-4.15;100.00
26915;BME280;14480;52.608;13.416;2023-04-28T23:59:08;142970.13;;;-4.16;100.00
